Terminal Aerodrome Forecast
Issued by NWS Charleston, WV

Current Version | Previous Version | Graphics & Text | Print | Product List | Glossary Off
Versions: 1 2 3 4 5 6 7 8 9 10 11 12 13 14 15 16 17 18 19

000
FTUS41 KRLX 281100
TAFEKN
TAF
KEKN 281134Z 2812/2912 24005KT 6SM -SHRA BR BKN015 OVC020
     FM281500 28008KT 4SM -SHRA BR OVC010
     FM290000 VRB03KT 3SM -RA BR OVC008
     FM290700 VRB03KT 3SM -RASN BR OVC008
     FM290900 00000KT 3SM BR BKN015=

USA.gov is the U.S. government's official web portal to all federal, state and local government web resources and services.